sensor_id;sensor_type;location;lat;lon;timestamp;P1;durP1;ratioP1;P2;durP2;ratioP2
52043;SDS011;38053;53.100;6.078;2024-01-30T00:00:49;38.83;;;26.05;;
52043;SDS011;38053;53.100;6.078;2024-01-30T00:03:15;44.55;;;27.42;;
52043;SDS011;38053;53.100;6.078;2024-01-30T00:05:41;41.13;;;26.98;;
52043;SDS011;38053;53.100;6.078;2024-01-30T00:08:06;43.40;;;27.85;;
52043;SDS011;38053;53.100;6.078;2024-01-30T00:10:32;42.33;;;25.98;;
52043;SDS011;38053;53.100;6.078;2024-01-30T00:12:58;36.10;;;26.52;;
52043;SDS011;38053;53.100;6.078;2024-01-30T00:15:23;33.58;;;24.70;;
52043;SDS011;38053;53.100;6.078;2024-01-30T00:17:49;33.90;;;26.23;;
52043;SDS011;38053;53.100;6.078;2024-01-30T00:20:17;40.35;;;27.02;;
52043;SDS011;38053;53.100;6.078;2024-01-30T00:22:43;40.05;;;26.52;;
52043;SDS011;38053;53.100;6.078;2024-01-30T00:25:08;40.00;;;25.83;;
52043;SDS011;38053;53.100;6.078;2024-01-30T00:27:34;36.15;;;26.30;;
52043;SDS011;38053;53.100;6.078;2024-01-30T00:30:00;42.72;;;27.25;;
52043;SDS011;38053;53.100;6.078;2024-01-30T00:32:25;35.85;;;25.83;;
52043;SDS011;38053;53.100;6.078;2024-01-30T00:34:51;45.03;;;28.20;;
52043;SDS011;38053;53.100;6.078;2024-01-30T00:37:17;38.40;;;26.80;;
52043;SDS011;38053;53.100;6.078;2024-01-30T00:39:42;41.78;;;25.52;;
52043;SDS011;38053;53.100;6.078;2024-01-30T00:42:08;44.95;;;26.17;;
52043;SDS011;38053;53.100;6.078;2024-01-30T00:44:36;36.05;;;26.35;;
52043;SDS011;38053;53.100;6.078;2024-01-30T00:47:03;32.72;;;24.48;;
52043;SDS011;38053;53.100;6.078;2024-01-30T00:49:29;33.65;;;24.08;;
52043;SDS011;38053;53.100;6.078;2024-01-30T00:51:55;37.10;;;25.13;;
52043;SDS011;38053;53.100;6.078;2024-01-30T00:54:21;34.40;;;25.55;;
52043;SDS011;38053;53.100;6.078;2024-01-30T00:56:46;38.97;;;26.75;;
52043;SDS011;38053;53.100;6.078;2024-01-30T00:59:12;35.92;;;26.38;;
52043;SDS011;38053;53.100;6.078;2024-01-30T01:01:37;40.63;;;27.52;;
52043;SDS011;38053;53.100;6.078;2024-01-30T01:04:08;38.25;;;26.35;;
52043;SDS011;38053;53.100;6.078;2024-01-30T01:06:37;37.42;;;25.55;;
52043;SDS011;38053;53.100;6.078;2024-01-30T01:09:03;35.90;;;25.65;;
52043;SDS011;38053;53.100;6.078;2024-01-30T01:11:29;39.45;;;26.15;;
52043;SDS011;38053;53.100;6.078;2024-01-30T01:13:54;38.20;;;25.00;;
52043;SDS011;38053;53.100;6.078;2024-01-30T01:16:20;38.25;;;26.17;;
52043;SDS011;38053;53.100;6.078;2024-01-30T01:18:45;36.33;;;26.30;;
52043;SDS011;38053;53.100;6.078;2024-01-30T01:21:11;44.08;;;27.38;;
52043;SDS011;38053;53.100;6.078;2024-01-30T01:23:37;40.03;;;27.27;;
52043;SDS011;38053;53.100;6.078;2024-01-30T01:26:02;36.22;;;25.35;;
52043;SDS011;38053;53.100;6.078;2024-01-30T01:28:30;38.22;;;26.83;;
52043;SDS011;38053;53.100;6.078;2024-01-30T01:30:55;45.05;;;26.52;;
52043;SDS011;38053;53.100;6.078;2024-01-30T01:33:24;39.38;;;25.98;;
52043;SDS011;38053;53.100;6.078;2024-01-30T01:35:50;39.42;;;25.55;;
52043;SDS011;38053;53.100;6.078;2024-01-30T01:38:18;38.38;;;26.15;;
52043;SDS011;38053;53.100;6.078;2024-01-30T01:40:44;34.38;;;24.33;;
52043;SDS011;38053;53.100;6.078;2024-01-30T01:43:10;42.20;;;28.23;;
52043;SDS011;38053;53.100;6.078;2024-01-30T01:45:36;33.28;;;24.35;;
52043;SDS011;38053;53.100;6.078;2024-01-30T01:48:02;36.00;;;24.35;;
52043;SDS011;38053;53.100;6.078;2024-01-30T01:50:27;35.95;;;25.50;;
52043;SDS011;38053;53.100;6.078;2024-01-30T01:52:53;34.53;;;24.55;;
52043;SDS011;38053;53.100;6.078;2024-01-30T01:55:20;34.97;;;25.83;;
52043;SDS011;38053;53.100;6.078;2024-01-30T01:57:54;42.90;;;25.90;;
52043;SDS011;38053;53.100;6.078;2024-01-30T02:00:21;42.10;;;26.60;;
52043;SDS011;38053;53.100;6.078;2024-01-30T02:02:48;36.90;;;26.45;;
52043;SDS011;38053;53.100;6.078;2024-01-30T02:05:15;38.78;;;26.70;;
52043;SDS011;38053;53.100;6.078;2024-01-30T02:07:41;40.72;;;25.38;;
52043;SDS011;38053;53.100;6.078;2024-01-30T02:10:17;35.63;;;25.98;;
52043;SDS011;38053;53.100;6.078;2024-01-30T02:12:43;37.63;;;24.95;;
52043;SDS011;38053;53.100;6.078;2024-01-30T02:15:08;36.45;;;25.70;;
52043;SDS011;38053;53.100;6.078;2024-01-30T02:17:41;36.60;;;24.90;;
52043;SDS011;38053;53.100;6.078;2024-01-30T02:20:07;37.05;;;25.48;;
52043;SDS011;38053;53.100;6.078;2024-01-30T02:22:36;38.38;;;25.30;;
52043;SDS011;38053;53.100;6.078;2024-01-30T02:25:04;34.25;;;24.15;;
52043;SDS011;38053;53.100;6.078;2024-01-30T02:27:29;41.92;;;25.90;;
52043;SDS011;38053;53.100;6.078;2024-01-30T02:29:55;34.78;;;25.08;;
52043;SDS011;38053;53.100;6.078;2024-01-30T02:32:23;36.47;;;24.38;;
52043;SDS011;38053;53.100;6.078;2024-01-30T02:34:49;34.65;;;25.95;;
52043;SDS011;38053;53.100;6.078;2024-01-30T02:37:16;41.15;;;25.95;;
52043;SDS011;38053;53.100;6.078;2024-01-30T02:39:41;40.17;;;25.05;;
52043;SDS011;38053;53.100;6.078;2024-01-30T02:42:07;41.17;;;24.92;;
52043;SDS011;38053;53.100;6.078;2024-01-30T02:44:41;40.05;;;26.63;;
52043;SDS011;38053;53.100;6.078;2024-01-30T02:47:07;39.78;;;25.42;;
52043;SDS011;38053;53.100;6.078;2024-01-30T02:49:33;40.47;;;24.98;;
52043;SDS011;38053;53.100;6.078;2024-01-30T02:51:58;38.90;;;23.85;;
52043;SDS011;38053;53.100;6.078;2024-01-30T02:54:24;38.20;;;24.77;;
52043;SDS011;38053;53.100;6.078;2024-01-30T02:56:52;35.50;;;24.38;;
52043;SDS011;38053;53.100;6.078;2024-01-30T02:59:18;37.53;;;23.77;;
52043;SDS011;38053;53.100;6.078;2024-01-30T03:01:44;38.28;;;24.05;;
52043;SDS011;38053;53.100;6.078;2024-01-30T03:04:11;32.50;;;23.40;;
52043;SDS011;38053;53.100;6.078;2024-01-30T03:06:37;34.53;;;24.77;;
52043;SDS011;38053;53.100;6.078;2024-01-30T03:09:05;38.88;;;26.27;;
52043;SDS011;38053;53.100;6.078;2024-01-30T03:11:31;38.03;;;25.65;;
52043;SDS011;38053;53.100;6.078;2024-01-30T03:13:57;35.30;;;23.63;;
52043;SDS011;38053;53.100;6.078;2024-01-30T03:16:22;35.28;;;24.70;;
52043;SDS011;38053;53.100;6.078;2024-01-30T03:18:48;35.63;;;23.38;;
52043;SDS011;38053;53.100;6.078;2024-01-30T03:21:16;37.33;;;23.25;;
52043;SDS011;38053;53.100;6.078;2024-01-30T03:23:42;34.35;;;23.50;;
52043;SDS011;38053;53.100;6.078;2024-01-30T03:26:08;35.55;;;24.25;;
52043;SDS011;38053;53.100;6.078;2024-01-30T03:28:34;31.55;;;21.38;;
52043;SDS011;38053;53.100;6.078;2024-01-30T03:30:59;30.80;;;23.08;;
52043;SDS011;38053;53.100;6.078;2024-01-30T03:33:26;35.67;;;23.02;;
52043;SDS011;38053;53.100;6.078;2024-01-30T03:35:52;31.27;;;23.13;;
52043;SDS011;38053;53.100;6.078;2024-01-30T03:38:20;34.45;;;22.33;;
52043;SDS011;38053;53.100;6.078;2024-01-30T03:40:46;33.00;;;23.65;;
52043;SDS011;38053;53.100;6.078;2024-01-30T03:43:12;31.33;;;22.50;;
52043;SDS011;38053;53.100;6.078;2024-01-30T03:45:37;29.85;;;22.17;;
52043;SDS011;38053;53.100;6.078;2024-01-30T03:48:06;32.00;;;22.02;;
52043;SDS011;38053;53.100;6.078;2024-01-30T03:50:32;34.17;;;24.25;;
52043;SDS011;38053;53.100;6.078;2024-01-30T03:52:57;31.17;;;22.98;;
52043;SDS011;38053;53.100;6.078;2024-01-30T03:55:24;38.95;;;21.95;;
52043;SDS011;38053;53.100;6.078;2024-01-30T03:57:50;35.22;;;23.92;;
52043;SDS011;38053;53.100;6.078;2024-01-30T04:00:17;29.55;;;22.00;;
52043;SDS011;38053;53.100;6.078;2024-01-30T04:02:48;30.80;;;22.40;;
52043;SDS011;38053;53.100;6.078;2024-01-30T04:05:16;27.58;;;20.35;;
52043;SDS011;38053;53.100;6.078;2024-01-30T04:07:42;30.98;;;21.77;;
52043;SDS011;38053;53.100;6.078;2024-01-30T04:10:09;39.20;;;23.33;;
52043;SDS011;38053;53.100;6.078;2024-01-30T04:12:35;29.40;;;21.20;;
52043;SDS011;38053;53.100;6.078;2024-01-30T04:15:01;35.05;;;21.02;;
52043;SDS011;38053;53.100;6.078;2024-01-30T04:17:27;34.70;;;24.13;;
52043;SDS011;38053;53.100;6.078;2024-01-30T04:19:54;32.67;;;21.77;;
52043;SDS011;38053;53.100;6.078;2024-01-30T04:22:20;33.05;;;21.35;;
52043;SDS011;38053;53.100;6.078;2024-01-30T04:24:46;28.95;;;21.13;;
52043;SDS011;38053;53.100;6.078;2024-01-30T04:27:11;35.80;;;22.88;;
52043;SDS011;38053;53.100;6.078;2024-01-30T04:29:37;28.35;;;20.75;;
52043;SDS011;38053;53.100;6.078;2024-01-30T04:32:06;28.15;;;21.38;;
52043;SDS011;38053;53.100;6.078;2024-01-30T04:34:32;30.10;;;21.02;;
52043;SDS011;38053;53.100;6.078;2024-01-30T04:36:57;26.83;;;21.13;;
52043;SDS011;38053;53.100;6.078;2024-01-30T04:39:23;30.95;;;20.25;;
52043;SDS011;38053;53.100;6.078;2024-01-30T04:41:52;24.52;;;18.65;;
52043;SDS011;38053;53.100;6.078;2024-01-30T04:44:18;29.17;;;20.15;;
52043;SDS011;38053;53.100;6.078;2024-01-30T04:46:43;28.63;;;19.17;;
52043;SDS011;38053;53.100;6.078;2024-01-30T04:49:09;26.20;;;19.55;;
52043;SDS011;38053;53.100;6.078;2024-01-30T04:51:37;26.17;;;19.23;;
52043;SDS011;38053;53.100;6.078;2024-01-30T04:54:03;24.15;;;18.30;;
52043;SDS011;38053;53.100;6.078;2024-01-30T04:56:29;25.48;;;18.23;;
52043;SDS011;38053;53.100;6.078;2024-01-30T04:58:58;26.30;;;18.50;;
52043;SDS011;38053;53.100;6.078;2024-01-30T05:01:24;21.55;;;17.25;;
52043;SDS011;38053;53.100;6.078;2024-01-30T05:03:50;29.10;;;17.90;;
52043;SDS011;38053;53.100;6.078;2024-01-30T05:06:28;30.92;;;19.45;;
52043;SDS011;38053;53.100;6.078;2024-01-30T05:08:53;27.23;;;18.13;;
52043;SDS011;38053;53.100;6.078;2024-01-30T05:11:19;26.25;;;18.90;;
52043;SDS011;38053;53.100;6.078;2024-01-30T05:13:45;23.23;;;17.88;;
52043;SDS011;38053;53.100;6.078;2024-01-30T05:16:10;25.98;;;17.73;;
52043;SDS011;38053;53.100;6.078;2024-01-30T05:18:36;23.20;;;16.85;;
52043;SDS011;38053;53.100;6.078;2024-01-30T05:21:02;27.42;;;18.08;;
52043;SDS011;38053;53.100;6.078;2024-01-30T05:23:28;27.10;;;17.55;;
52043;SDS011;38053;53.100;6.078;2024-01-30T05:25:54;27.35;;;17.85;;
52043;SDS011;38053;53.100;6.078;2024-01-30T05:28:19;23.73;;;16.88;;
52043;SDS011;38053;53.100;6.078;2024-01-30T05:30:45;24.05;;;18.17;;
52043;SDS011;38053;53.100;6.078;2024-01-30T05:33:11;23.73;;;15.90;;
52043;SDS011;38053;53.100;6.078;2024-01-30T05:35:37;27.65;;;17.52;;
52043;SDS011;38053;53.100;6.078;2024-01-30T05:38:11;25.73;;;16.73;;
52043;SDS011;38053;53.100;6.078;2024-01-30T05:40:41;23.30;;;16.85;;
52043;SDS011;38053;53.100;6.078;2024-01-30T05:43:08;25.63;;;16.65;;
52043;SDS011;38053;53.100;6.078;2024-01-30T05:45:34;25.05;;;16.77;;
52043;SDS011;38053;53.100;6.078;2024-01-30T05:51:43;27.20;;;17.27;;
52043;SDS011;38053;53.100;6.078;2024-01-30T05:54:09;22.85;;;17.10;;
52043;SDS011;38053;53.100;6.078;2024-01-30T05:56:35;22.75;;;17.48;;
52043;SDS011;38053;53.100;6.078;2024-01-30T05:59:04;25.58;;;17.80;;
52043;SDS011;38053;53.100;6.078;2024-01-30T06:01:29;32.08;;;17.33;;
52043;SDS011;38053;53.100;6.078;2024-01-30T06:03:55;21.67;;;16.67;;
52043;SDS011;38053;53.100;6.078;2024-01-30T06:06:22;24.38;;;17.52;;
52043;SDS011;38053;53.100;6.078;2024-01-30T06:08:48;26.88;;;17.10;;
52043;SDS011;38053;53.100;6.078;2024-01-30T06:11:13;23.52;;;16.00;;
52043;SDS011;38053;53.100;6.078;2024-01-30T06:13:40;26.25;;;16.70;;
52043;SDS011;38053;53.100;6.078;2024-01-30T06:16:09;25.40;;;17.55;;
52043;SDS011;38053;53.100;6.078;2024-01-30T06:18:36;23.27;;;16.30;;
52043;SDS011;38053;53.100;6.078;2024-01-30T06:21:01;23.85;;;17.42;;
52043;SDS011;38053;53.100;6.078;2024-01-30T06:23:27;25.55;;;16.33;;
52043;SDS011;38053;53.100;6.078;2024-01-30T06:25:53;22.13;;;16.50;;
52043;SDS011;38053;53.100;6.078;2024-01-30T06:28:20;27.00;;;17.10;;
52043;SDS011;38053;53.100;6.078;2024-01-30T06:30:46;25.00;;;17.27;;
52043;SDS011;38053;53.100;6.078;2024-01-30T06:33:12;22.83;;;16.45;;
52043;SDS011;38053;53.100;6.078;2024-01-30T06:35:38;21.05;;;16.00;;
52043;SDS011;38053;53.100;6.078;2024-01-30T06:38:05;25.35;;;16.42;;
52043;SDS011;38053;53.100;6.078;2024-01-30T06:40:31;23.00;;;15.25;;
52043;SDS011;38053;53.100;6.078;2024-01-30T06:42:56;24.40;;;16.20;;
52043;SDS011;38053;53.100;6.078;2024-01-30T06:45:22;22.90;;;15.30;;
52043;SDS011;38053;53.100;6.078;2024-01-30T06:47:48;24.80;;;16.75;;
52043;SDS011;38053;53.100;6.078;2024-01-30T06:50:22;24.50;;;16.98;;
52043;SDS011;38053;53.100;6.078;2024-01-30T06:52:51;27.75;;;16.75;;
52043;SDS011;38053;53.100;6.078;2024-01-30T06:55:17;20.98;;;15.25;;
52043;SDS011;38053;53.100;6.078;2024-01-30T06:57:43;21.70;;;15.90;;
52043;SDS011;38053;53.100;6.078;2024-01-30T07:00:09;21.58;;;15.88;;
52043;SDS011;38053;53.100;6.078;2024-01-30T07:02:38;21.45;;;16.25;;
52043;SDS011;38053;53.100;6.078;2024-01-30T07:05:04;22.00;;;14.15;;
52043;SDS011;38053;53.100;6.078;2024-01-30T07:07:30;23.33;;;15.02;;
52043;SDS011;38053;53.100;6.078;2024-01-30T07:09:55;21.27;;;14.50;;
52043;SDS011;38053;53.100;6.078;2024-01-30T07:12:26;21.50;;;14.95;;
52043;SDS011;38053;53.100;6.078;2024-01-30T07:14:52;28.48;;;16.23;;
52043;SDS011;38053;53.100;6.078;2024-01-30T07:17:17;22.25;;;15.93;;
52043;SDS011;38053;53.100;6.078;2024-01-30T07:19:43;24.65;;;15.65;;
52043;SDS011;38053;53.100;6.078;2024-01-30T07:22:10;19.95;;;14.02;;
52043;SDS011;38053;53.100;6.078;2024-01-30T07:24:36;21.08;;;14.18;;
52043;SDS011;38053;53.100;6.078;2024-01-30T07:27:17;22.63;;;15.05;;
52043;SDS011;38053;53.100;6.078;2024-01-30T07:29:46;19.83;;;13.95;;
52043;SDS011;38053;53.100;6.078;2024-01-30T07:32:11;23.25;;;15.20;;
52043;SDS011;38053;53.100;6.078;2024-01-30T07:34:37;25.05;;;15.30;;
52043;SDS011;38053;53.100;6.078;2024-01-30T07:37:05;20.80;;;14.15;;
52043;SDS011;38053;53.100;6.078;2024-01-30T07:39:33;21.48;;;15.30;;
52043;SDS011;38053;53.100;6.078;2024-01-30T07:41:59;22.60;;;14.65;;
52043;SDS011;38053;53.100;6.078;2024-01-30T07:44:25;20.05;;;14.85;;
52043;SDS011;38053;53.100;6.078;2024-01-30T07:46:50;22.05;;;13.88;;
52043;SDS011;38053;53.100;6.078;2024-01-30T07:49:19;22.77;;;13.82;;
52043;SDS011;38053;53.100;6.078;2024-01-30T07:51:45;18.30;;;14.52;;
52043;SDS011;38053;53.100;6.078;2024-01-30T07:57:01;26.50;;;14.57;;
52043;SDS011;38053;53.100;6.078;2024-01-30T07:59:27;20.33;;;13.13;;
52043;SDS011;38053;53.100;6.078;2024-01-30T08:02:02;26.33;;;13.85;;
52043;SDS011;38053;53.100;6.078;2024-01-30T08:04:34;25.48;;;14.63;;
52043;SDS011;38053;53.100;6.078;2024-01-30T08:07:03;22.98;;;15.60;;
52043;SDS011;38053;53.100;6.078;2024-01-30T08:12:39;20.80;;;14.40;;
52043;SDS011;38053;53.100;6.078;2024-01-30T08:15:05;22.95;;;15.35;;
52043;SDS011;38053;53.100;6.078;2024-01-30T08:17:31;21.77;;;13.60;;
52043;SDS011;38053;53.100;6.078;2024-01-30T08:19:56;22.73;;;14.52;;
52043;SDS011;38053;53.100;6.078;2024-01-30T08:22:22;21.75;;;14.10;;
52043;SDS011;38053;53.100;6.078;2024-01-30T08:24:47;23.35;;;14.70;;
52043;SDS011;38053;53.100;6.078;2024-01-30T08:27:13;27.13;;;14.35;;
52043;SDS011;38053;53.100;6.078;2024-01-30T08:32:34;21.00;;;14.65;;
52043;SDS011;38053;53.100;6.078;2024-01-30T08:35:02;21.90;;;14.30;;
52043;SDS011;38053;53.100;6.078;2024-01-30T08:37:29;20.52;;;14.15;;
52043;SDS011;38053;53.100;6.078;2024-01-30T08:39:55;19.13;;;14.55;;
52043;SDS011;38053;53.100;6.078;2024-01-30T08:42:21;22.92;;;13.98;;
52043;SDS011;38053;53.100;6.078;2024-01-30T08:44:48;25.23;;;14.25;;
52043;SDS011;38053;53.100;6.078;2024-01-30T08:47:14;25.85;;;15.15;;
52043;SDS011;38053;53.100;6.078;2024-01-30T08:49:42;21.25;;;14.55;;
52043;SDS011;38053;53.100;6.078;2024-01-30T08:52:11;19.63;;;13.43;;
52043;SDS011;38053;53.100;6.078;2024-01-30T08:54:37;21.23;;;14.00;;
52043;SDS011;38053;53.100;6.078;2024-01-30T08:57:05;21.80;;;14.82;;
52043;SDS011;38053;53.100;6.078;2024-01-30T08:59:33;26.38;;;16.45;;
52043;SDS011;38053;53.100;6.078;2024-01-30T09:01:59;19.85;;;13.57;;
52043;SDS011;38053;53.100;6.078;2024-01-30T09:08:13;18.60;;;13.40;;
52043;SDS011;38053;53.100;6.078;2024-01-30T09:10:42;20.60;;;13.75;;
52043;SDS011;38053;53.100;6.078;2024-01-30T09:13:08;26.27;;;14.48;;
52043;SDS011;38053;53.100;6.078;2024-01-30T09:15:36;26.80;;;13.50;;
52043;SDS011;38053;53.100;6.078;2024-01-30T09:18:02;21.00;;;13.57;;
52043;SDS011;38053;53.100;6.078;2024-01-30T09:26:53;23.88;;;15.27;;
52043;SDS011;38053;53.100;6.078;2024-01-30T09:33:12;21.08;;;14.10;;
52043;SDS011;38053;53.100;6.078;2024-01-30T09:35:44;33.33;;;14.38;;
52043;SDS011;38053;53.100;6.078;2024-01-30T09:38:16;30.17;;;15.05;;
52043;SDS011;38053;53.100;6.078;2024-01-30T09:40:53;28.25;;;14.95;;
52043;SDS011;38053;53.100;6.078;2024-01-30T09:43:22;25.35;;;14.70;;
52043;SDS011;38053;53.100;6.078;2024-01-30T09:45:54;26.98;;;15.90;;
52043;SDS011;38053;53.100;6.078;2024-01-30T09:52:02;22.98;;;13.98;;
52043;SDS011;38053;53.100;6.078;2024-01-30T09:54:33;22.88;;;14.10;;
52043;SDS011;38053;53.100;6.078;2024-01-30T09:57:00;26.67;;;14.15;;
52043;SDS011;38053;53.100;6.078;2024-01-30T09:59:25;25.70;;;14.18;;
52043;SDS011;38053;53.100;6.078;2024-01-30T10:01:51;27.10;;;14.52;;
52043;SDS011;38053;53.100;6.078;2024-01-30T10:04:23;19.85;;;14.70;;
52043;SDS011;38053;53.100;6.078;2024-01-30T10:06:51;23.30;;;13.95;;
52043;SDS011;38053;53.100;6.078;2024-01-30T10:09:16;24.42;;;15.57;;
52043;SDS011;38053;53.100;6.078;2024-01-30T10:11:42;23.63;;;15.60;;
52043;SDS011;38053;53.100;6.078;2024-01-30T10:14:08;20.88;;;14.45;;
52043;SDS011;38053;53.100;6.078;2024-01-30T10:16:34;26.00;;;14.45;;
52043;SDS011;38053;53.100;6.078;2024-01-30T10:19:11;21.83;;;13.82;;
52043;SDS011;38053;53.100;6.078;2024-01-30T10:21:37;26.95;;;13.60;;
52043;SDS011;38053;53.100;6.078;2024-01-30T10:24:02;24.60;;;14.27;;
52043;SDS011;38053;53.100;6.078;2024-01-30T10:26:29;28.20;;;14.25;;
52043;SDS011;38053;53.100;6.078;2024-01-30T10:28:58;23.88;;;13.65;;
52043;SDS011;38053;53.100;6.078;2024-01-30T10:31:23;24.38;;;13.43;;
52043;SDS011;38053;53.100;6.078;2024-01-30T10:37:11;25.42;;;13.02;;
52043;SDS011;38053;53.100;6.078;2024-01-30T10:39:43;22.20;;;12.70;;
52043;SDS011;38053;53.100;6.078;2024-01-30T10:42:13;25.75;;;13.07;;
52043;SDS011;38053;53.100;6.078;2024-01-30T10:47:18;21.08;;;11.38;;
52043;SDS011;38053;53.100;6.078;2024-01-30T10:49:51;21.92;;;11.65;;
52043;SDS011;38053;53.100;6.078;2024-01-30T10:52:17;21.92;;;11.77;;
52043;SDS011;38053;53.100;6.078;2024-01-30T10:54:51;26.10;;;10.35;;
52043;SDS011;38053;53.100;6.078;2024-01-30T10:57:19;19.90;;;11.00;;
52043;SDS011;38053;53.100;6.078;2024-01-30T11:06:12;24.75;;;11.13;;
52043;SDS011;38053;53.100;6.078;2024-01-30T11:08:43;20.48;;;8.95;;
52043;SDS011;38053;53.100;6.078;2024-01-30T11:11:25;17.42;;;8.15;;
52043;SDS011;38053;53.100;6.078;2024-01-30T11:13:50;20.05;;;6.43;;
52043;SDS011;38053;53.100;6.078;2024-01-30T11:16:17;15.82;;;5.18;;
52043;SDS011;38053;53.100;6.078;2024-01-30T11:18:54;12.18;;;5.05;;
52043;SDS011;38053;53.100;6.078;2024-01-30T11:24:36;12.02;;;3.92;;
52043;SDS011;38053;53.100;6.078;2024-01-30T11:27:08;11.55;;;3.85;;
52043;SDS011;38053;53.100;6.078;2024-01-30T11:29:35;8.73;;;2.63;;
52043;SDS011;38053;53.100;6.078;2024-01-30T11:32:01;10.50;;;2.58;;
52043;SDS011;38053;53.100;6.078;2024-01-30T11:34:30;12.00;;;2.67;;
52043;SDS011;38053;53.100;6.078;2024-01-30T11:36:59;12.98;;;2.35;;
52043;SDS011;38053;53.100;6.078;2024-01-30T11:39:34;9.85;;;2.80;;
52043;SDS011;38053;53.100;6.078;2024-01-30T11:42:01;8.45;;;2.60;;
52043;SDS011;38053;53.100;6.078;2024-01-30T11:44:50;6.25;;;1.60;;
52043;SDS011;38053;53.100;6.078;2024-01-30T11:47:19;12.93;;;2.38;;
52043;SDS011;38053;53.100;6.078;2024-01-30T11:49:45;17.33;;;3.42;;
52043;SDS011;38053;53.100;6.078;2024-01-30T11:52:11;7.82;;;2.53;;
52043;SDS011;38053;53.100;6.078;2024-01-30T11:57:45;16.45;;;2.67;;
52043;SDS011;38053;53.100;6.078;2024-01-30T12:03:22;11.90;;;1.88;;
52043;SDS011;38053;53.100;6.078;2024-01-30T12:05:54;11.10;;;1.88;;
52043;SDS011;38053;53.100;6.078;2024-01-30T12:08:23;14.77;;;3.42;;
52043;SDS011;38053;53.100;6.078;2024-01-30T12:10:56;7.90;;;1.73;;
52043;SDS011;38053;53.100;6.078;2024-01-30T12:13:23;7.28;;;1.80;;
52043;SDS011;38053;53.100;6.078;2024-01-30T12:15:55;9.57;;;1.92;;
52043;SDS011;38053;53.100;6.078;2024-01-30T12:18:21;11.75;;;2.47;;
52043;SDS011;38053;53.100;6.078;2024-01-30T12:20:56;7.57;;;1.58;;
52043;SDS011;38053;53.100;6.078;2024-01-30T12:23:28;13.68;;;2.63;;
52043;SDS011;38053;53.100;6.078;2024-01-30T12:25:54;12.13;;;2.47;;
52043;SDS011;38053;53.100;6.078;2024-01-30T12:28:20;8.73;;;2.38;;
52043;SDS011;38053;53.100;6.078;2024-01-30T12:31:04;8.75;;;2.28;;
52043;SDS011;38053;53.100;6.078;2024-01-30T12:33:36;12.13;;;1.80;;
52043;SDS011;38053;53.100;6.078;2024-01-30T12:36:02;5.65;;;2.75;;
52043;SDS011;38053;53.100;6.078;2024-01-30T12:38:29;9.48;;;1.73;;
52043;SDS011;38053;53.100;6.078;2024-01-30T12:40:55;9.45;;;1.80;;
52043;SDS011;38053;53.100;6.078;2024-01-30T12:43:21;6.47;;;1.92;;
52043;SDS011;38053;53.100;6.078;2024-01-30T12:48:52;4.00;;;1.42;;
52043;SDS011;38053;53.100;6.078;2024-01-30T12:51:18;5.75;;;1.65;;
52043;SDS011;38053;53.100;6.078;2024-01-30T12:53:47;8.98;;;2.00;;
52043;SDS011;38053;53.100;6.078;2024-01-30T12:56:13;7.97;;;1.40;;
52043;SDS011;38053;53.100;6.078;2024-01-30T12:58:46;6.57;;;1.40;;
52043;SDS011;38053;53.100;6.078;2024-01-30T13:01:11;7.03;;;1.90;;
52043;SDS011;38053;53.100;6.078;2024-01-30T13:03:49;4.75;;;1.73;;
52043;SDS011;38053;53.100;6.078;2024-01-30T13:06:18;8.10;;;1.80;;
52043;SDS011;38053;53.100;6.078;2024-01-30T13:08:44;10.27;;;3.67;;
52043;SDS011;38053;53.100;6.078;2024-01-30T13:14:50;6.53;;;1.92;;
52043;SDS011;38053;53.100;6.078;2024-01-30T13:17:16;11.27;;;1.92;;
52043;SDS011;38053;53.100;6.078;2024-01-30T13:19:44;7.30;;;2.22;;
52043;SDS011;38053;53.100;6.078;2024-01-30T13:22:10;6.78;;;1.98;;
52043;SDS011;38053;53.100;6.078;2024-01-30T13:24:36;6.93;;;2.38;;
52043;SDS011;38053;53.100;6.078;2024-01-30T13:27:02;11.48;;;3.00;;
52043;SDS011;38053;53.100;6.078;2024-01-30T13:29:30;9.82;;;2.00;;
52043;SDS011;38053;53.100;6.078;2024-01-30T13:31:56;10.95;;;2.63;;
52043;SDS011;38053;53.100;6.078;2024-01-30T13:34:22;8.27;;;2.22;;
52043;SDS011;38053;53.100;6.078;2024-01-30T13:36:47;10.20;;;2.20;;
52043;SDS011;38053;53.100;6.078;2024-01-30T13:39:14;8.38;;;2.67;;
52043;SDS011;38053;53.100;6.078;2024-01-30T13:41:43;6.95;;;2.35;;
52043;SDS011;38053;53.100;6.078;2024-01-30T13:44:08;5.40;;;1.92;;
52043;SDS011;38053;53.100;6.078;2024-01-30T13:46:34;9.35;;;2.85;;
52043;SDS011;38053;53.100;6.078;2024-01-30T13:49:01;6.72;;;2.50;;
52043;SDS011;38053;53.100;6.078;2024-01-30T13:51:27;10.25;;;2.17;;
52043;SDS011;38053;53.100;6.078;2024-01-30T13:53:53;7.72;;;2.83;;
52043;SDS011;38053;53.100;6.078;2024-01-30T13:56:21;8.80;;;2.70;;
52043;SDS011;38053;53.100;6.078;2024-01-30T13:58:56;6.47;;;2.15;;
52043;SDS011;38053;53.100;6.078;2024-01-30T14:01:22;6.00;;;2.88;;
52043;SDS011;38053;53.100;6.078;2024-01-30T14:03:48;8.55;;;3.15;;
52043;SDS011;38053;53.100;6.078;2024-01-30T14:06:14;18.15;;;5.03;;
52043;SDS011;38053;53.100;6.078;2024-01-30T14:08:45;11.40;;;3.75;;
52043;SDS011;38053;53.100;6.078;2024-01-30T14:11:20;10.15;;;3.13;;
52043;SDS011;38053;53.100;6.078;2024-01-30T14:13:46;14.57;;;3.40;;
52043;SDS011;38053;53.100;6.078;2024-01-30T14:16:12;13.15;;;3.13;;
52043;SDS011;38053;53.100;6.078;2024-01-30T14:21:36;10.77;;;3.90;;
52043;SDS011;38053;53.100;6.078;2024-01-30T14:24:05;16.02;;;4.70;;
52043;SDS011;38053;53.100;6.078;2024-01-30T14:35:29;9.85;;;3.47;;
52043;SDS011;38053;53.100;6.078;2024-01-30T14:38:01;9.20;;;3.63;;
52043;SDS011;38053;53.100;6.078;2024-01-30T14:40:35;10.55;;;4.38;;
52043;SDS011;38053;53.100;6.078;2024-01-30T14:43:19;8.00;;;3.10;;
52043;SDS011;38053;53.100;6.078;2024-01-30T14:45:44;8.45;;;3.33;;
52043;SDS011;38053;53.100;6.078;2024-01-30T14:48:19;15.27;;;3.90;;
52043;SDS011;38053;53.100;6.078;2024-01-30T14:50:45;10.50;;;3.97;;
52043;SDS011;38053;53.100;6.078;2024-01-30T14:53:11;9.18;;;4.05;;
52043;SDS011;38053;53.100;6.078;2024-01-30T14:55:37;12.30;;;4.43;;
52043;SDS011;38053;53.100;6.078;2024-01-30T14:58:02;10.40;;;3.92;;
52043;SDS011;38053;53.100;6.078;2024-01-30T15:00:30;11.48;;;4.07;;
52043;SDS011;38053;53.100;6.078;2024-01-30T15:02:55;9.55;;;4.28;;
52043;SDS011;38053;53.100;6.078;2024-01-30T15:05:21;9.70;;;3.85;;
52043;SDS011;38053;53.100;6.078;2024-01-30T15:07:58;10.18;;;4.25;;
52043;SDS011;38053;53.100;6.078;2024-01-30T15:10:26;10.77;;;5.07;;
52043;SDS011;38053;53.100;6.078;2024-01-30T15:12:58;10.55;;;4.30;;
52043;SDS011;38053;53.100;6.078;2024-01-30T15:15:23;9.23;;;4.53;;
52043;SDS011;38053;53.100;6.078;2024-01-30T15:17:49;13.05;;;5.07;;
52043;SDS011;38053;53.100;6.078;2024-01-30T15:20:15;8.35;;;5.28;;
52043;SDS011;38053;53.100;6.078;2024-01-30T15:22:43;8.77;;;5.00;;
52043;SDS011;38053;53.100;6.078;2024-01-30T15:25:19;11.32;;;4.60;;
52043;SDS011;38053;53.100;6.078;2024-01-30T15:27:48;11.82;;;4.78;;
52043;SDS011;38053;53.100;6.078;2024-01-30T15:30:23;10.40;;;4.68;;
52043;SDS011;38053;53.100;6.078;2024-01-30T15:32:49;10.15;;;4.93;;
52043;SDS011;38053;53.100;6.078;2024-01-30T15:35:14;7.88;;;4.82;;
52043;SDS011;38053;53.100;6.078;2024-01-30T15:37:52;9.57;;;4.72;;